sensor_id;sensor_type;location;lat;lon;timestamp;pressure;altitude;pressure_sealevel;temperature;humidity
45467;BME280;31212;49.734;8.490;2023-02-10T00:01:39;102501.72;;;-4.10;85.13
45467;BME280;31212;49.734;8.490;2023-02-10T00:04:06;102499.94;;;-4.11;85.11
45467;BME280;31212;49.734;8.490;2023-02-10T00:06:33;102496.03;;;-4.08;85.12
45467;BME280;31212;49.734;8.490;2023-02-10T00:09:01;102495.47;;;-4.14;84.69
45467;BME280;31212;49.734;8.490;2023-02-10T00:11:28;102498.13;;;-4.12;85.50
45467;BME280;31212;49.734;8.490;2023-02-10T00:14:14;102506.34;;;-4.15;85.05
45467;BME280;31212;49.734;8.490;2023-02-10T00:16:42;102513.63;;;-4.09;85.37
45467;BME280;31212;49.734;8.490;2023-02-10T00:19:09;102514.09;;;-4.13;85.27
45467;BME280;31212;49.734;8.490;2023-02-10T00:21:36;102526.63;;;-4.15;85.05
45467;BME280;31212;49.734;8.490;2023-02-10T00:24:02;102529.91;;;-4.16;85.63
45467;BME280;31212;49.734;8.490;2023-02-10T00:26:29;102525.91;;;-4.14;85.30
45467;BME280;31212;49.734;8.490;2023-02-10T00:28:55;102533.34;;;-4.07;85.23
45467;BME280;31212;49.734;8.490;2023-02-10T00:31:22;102528.88;;;-4.09;85.26
45467;BME280;31212;49.734;8.490;2023-02-10T00:33:50;102529.47;;;-4.12;85.39
45467;BME280;31212;49.734;8.490;2023-02-10T00:36:17;102527.97;;;-4.10;85.11
45467;BME280;31212;49.734;8.490;2023-02-10T00:38:44;102526.19;;;-4.11;84.95
45467;BME280;31212;49.734;8.490;2023-02-10T00:41:12;102519.16;;;-4.13;84.80
45467;BME280;31212;49.734;8.490;2023-02-10T00:43:39;102520.22;;;-4.20;85.16
45467;BME280;31212;49.734;8.490;2023-02-10T00:46:08;102528.75;;;-4.19;85.24
45467;BME280;31212;49.734;8.490;2023-02-10T00:48:36;102527.69;;;-4.22;85.33
45467;BME280;31212;49.734;8.490;2023-02-10T00:51:05;102529.75;;;-4.17;85.25
45467;BME280;31212;49.734;8.490;2023-02-10T00:53:32;102526.06;;;-4.21;84.92
45467;BME280;31212;49.734;8.490;2023-02-10T00:55:59;102532.47;;;-4.25;84.97
45467;BME280;31212;49.734;8.490;2023-02-10T00:58:25;102533.94;;;-4.18;84.75
45467;BME280;31212;49.734;8.490;2023-02-10T01:00:53;102532.91;;;-4.11;84.94
45467;BME280;31212;49.734;8.490;2023-02-10T01:03:20;102535.75;;;-4.17;84.69
45467;BME280;31212;49.734;8.490;2023-02-10T01:05:47;102542.75;;;-4.14;85.32
45467;BME280;31212;49.734;8.490;2023-02-10T01:08:16;102536.78;;;-4.06;84.72
45467;BME280;31212;49.734;8.490;2023-02-10T01:10:43;102538.88;;;-4.11;84.36
45467;BME280;31212;49.734;8.490;2023-02-10T01:13:12;102539.94;;;-4.09;84.53
45467;BME280;31212;49.734;8.490;2023-02-10T01:15:41;102535.16;;;-4.14;84.99
45467;BME280;31212;49.734;8.490;2023-02-10T01:18:08;102532.59;;;-4.06;84.52
45467;BME280;31212;49.734;8.490;2023-02-10T01:20:38;102524.84;;;-4.07;84.87
45467;BME280;31212;49.734;8.490;2023-02-10T01:23:04;102518.88;;;-4.16;84.52
45467;BME280;31212;49.734;8.490;2023-02-10T01:25:33;102523.34;;;-4.14;84.69
45467;BME280;31212;49.734;8.490;2023-02-10T01:28:00;102521.41;;;-4.08;84.79
45467;BME280;31212;49.734;8.490;2023-02-10T01:30:27;102523.34;;;-4.14;84.50
45467;BME280;31212;49.734;8.490;2023-02-10T01:32:54;102527.81;;;-4.20;84.64
45467;BME280;31212;49.734;8.490;2023-02-10T01:35:22;102528.88;;;-4.18;84.33
45467;BME280;31212;49.734;8.490;2023-02-10T01:37:48;102528.75;;;-4.19;84.42
45467;BME280;31212;49.734;8.490;2023-02-10T01:40:16;102525.00;;;-4.23;84.47
45467;BME280;31212;49.734;8.490;2023-02-10T01:42:44;102531.88;;;-4.22;84.84
45467;BME280;31212;49.734;8.490;2023-02-10T01:45:15;102522.19;;;-4.26;84.74
45467;BME280;31212;49.734;8.490;2023-02-10T01:47:42;102529.47;;;-4.29;84.77
45467;BME280;31212;49.734;8.490;2023-02-10T01:50:10;102525.00;;;-4.32;84.84
45467;BME280;31212;49.734;8.490;2023-02-10T01:52:37;102537.22;;;-4.36;84.86
45467;BME280;31212;49.734;8.490;2023-02-10T01:55:06;102548.69;;;-4.40;84.98
45467;BME280;31212;49.734;8.490;2023-02-10T01:57:35;102546.94;;;-4.41;84.67
45467;BME280;31212;49.734;8.490;2023-02-10T02:00:06;102552.75;;;-4.42;85.13
45467;BME280;31212;49.734;8.490;2023-02-10T02:02:40;102555.72;;;-4.46;85.27
45467;BME280;31212;49.734;8.490;2023-02-10T02:05:20;102556.31;;;-4.49;85.62
45467;BME280;31212;49.734;8.490;2023-02-10T02:07:49;102563.31;;;-4.46;85.32
45467;BME280;31212;49.734;8.490;2023-02-10T02:10:16;102578.69;;;-4.45;86.07
45467;BME280;31212;49.734;8.490;2023-02-10T02:12:50;102584.63;;;-4.44;85.89
45467;BME280;31212;49.734;8.490;2023-02-10T02:15:23;102589.25;;;-4.40;85.91
45467;BME280;31212;49.734;8.490;2023-02-10T02:18:02;102592.56;;;-4.41;85.98
45467;BME280;31212;49.734;8.490;2023-02-10T02:21:01;102601.66;;;-4.43;85.93
45467;BME280;31212;49.734;8.490;2023-02-10T02:23:46;102599.25;;;-4.42;86.01
45467;BME280;31212;49.734;8.490;2023-02-10T02:26:51;102599.59;;;-4.38;86.03
45467;BME280;31212;49.734;8.490;2023-02-10T02:29:33;102593.31;;;-4.42;86.29
45467;BME280;31212;49.734;8.490;2023-02-10T02:32:06;102599.25;;;-4.42;86.44
45467;BME280;31212;49.734;8.490;2023-02-10T02:34:37;102606.72;;;-4.43;85.83
45467;BME280;31212;49.734;8.490;2023-02-10T02:37:08;102601.34;;;-4.46;85.88
45467;BME280;31212;49.734;8.490;2023-02-10T02:39:37;102611.78;;;-4.43;86.29
45467;BME280;31212;49.734;8.490;2023-02-10T02:42:15;102616.91;;;-4.34;86.20
45467;BME280;31212;49.734;8.490;2023-02-10T02:44:44;102617.63;;;-4.35;86.65
45467;BME280;31212;49.734;8.490;2023-02-10T02:47:19;102613.78;;;-4.32;86.35
45467;BME280;31212;49.734;8.490;2023-02-10T02:49:53;102618.66;;;-4.33;86.00
45467;BME280;31212;49.734;8.490;2023-02-10T02:52:31;102613.00;;;-4.40;86.25
45467;BME280;31212;49.734;8.490;2023-02-10T02:55:06;102613.59;;;-4.33;86.29
45467;BME280;31212;49.734;8.490;2023-02-10T02:57:41;102621.38;;;-4.32;86.06
45467;BME280;31212;49.734;8.490;2023-02-10T03:00:13;102620.75;;;-4.29;86.16
45467;BME280;31212;49.734;8.490;2023-02-10T03:02:43;102614.50;;;-4.33;85.86
45467;BME280;31212;49.734;8.490;2023-02-10T03:05:11;102610.47;;;-4.40;86.17
45467;BME280;31212;49.734;8.490;2023-02-10T03:07:42;102611.50;;;-4.46;86.25
45467;BME280;31212;49.734;8.490;2023-02-10T03:10:09;102613.56;;;-4.51;86.25
45467;BME280;31212;49.734;8.490;2023-02-10T03:12:35;102620.72;;;-4.56;86.56
45467;BME280;31212;49.734;8.490;2023-02-10T03:15:02;102623.84;;;-4.58;86.31
45467;BME280;31212;49.734;8.490;2023-02-10T03:17:29;102623.25;;;-4.56;86.45
45467;BME280;31212;49.734;8.490;2023-02-10T03:19:56;102621.44;;;-4.57;86.65
45467;BME280;31212;49.734;8.490;2023-02-10T03:22:23;102618.63;;;-4.60;86.47
45467;BME280;31212;49.734;8.490;2023-02-10T03:24:49;102619.34;;;-4.61;86.85
45467;BME280;31212;49.734;8.490;2023-02-10T03:27:16;102609.66;;;-4.65;86.64
45467;BME280;31212;49.734;8.490;2023-02-10T03:29:42;102619.50;;;-4.68;86.88
45467;BME280;31212;49.734;8.490;2023-02-10T03:32:09;102618.75;;;-4.67;87.20
45467;BME280;31212;49.734;8.490;2023-02-10T03:34:35;102614.44;;;-4.59;86.84
45467;BME280;31212;49.734;8.490;2023-02-10T03:37:03;102605.84;;;-4.44;86.65
45467;BME280;31212;49.734;8.490;2023-02-10T03:39:30;102609.09;;;-4.45;87.04
45467;BME280;31212;49.734;8.490;2023-02-10T03:41:56;102617.00;;;-4.42;87.00
45467;BME280;31212;49.734;8.490;2023-02-10T03:44:23;102615.38;;;-4.41;86.99
45467;BME280;31212;49.734;8.490;2023-02-10T03:46:49;102616.72;;;-4.36;87.12
45467;BME280;31212;49.734;8.490;2023-02-10T03:49:16;102630.31;;;-4.35;87.48
45467;BME280;31212;49.734;8.490;2023-02-10T03:51:42;102628.50;;;-4.45;87.24
45467;BME280;31212;49.734;8.490;2023-02-10T03:54:10;102641.34;;;-4.44;87.07
45467;BME280;31212;49.734;8.490;2023-02-10T03:56:36;102644.91;;;-4.42;87.17
45467;BME280;31212;49.734;8.490;2023-02-10T03:59:04;102646.41;;;-4.44;87.71
45467;BME280;31212;49.734;8.490;2023-02-10T04:01:30;102643.25;;;-4.50;87.42
45467;BME280;31212;49.734;8.490;2023-02-10T04:03:57;102646.06;;;-4.56;87.50
45467;BME280;31212;49.734;8.490;2023-02-10T04:06:23;102651.75;;;-4.49;87.52
45467;BME280;31212;49.734;8.490;2023-02-10T04:08:50;102652.66;;;-4.49;87.46
45467;BME280;31212;49.734;8.490;2023-02-10T04:11:17;102637.56;;;-4.56;87.07
45467;BME280;31212;49.734;8.490;2023-02-10T04:13:44;102641.88;;;-4.64;87.31
45467;BME280;31212;49.734;8.490;2023-02-10T04:16:12;102641.44;;;-4.60;87.30
45467;BME280;31212;49.734;8.490;2023-02-10T04:18:39;102639.34;;;-4.64;87.34
45467;BME280;31212;49.734;8.490;2023-02-10T04:21:07;102648.31;;;-4.59;87.26
45467;BME280;31212;49.734;8.490;2023-02-10T04:23:34;102645.75;;;-4.59;87.15
45467;BME280;31212;49.734;8.490;2023-02-10T04:26:01;102645.00;;;-4.58;87.43
45467;BME280;31212;49.734;8.490;2023-02-10T04:28:29;102651.13;;;-4.56;87.11
45467;BME280;31212;49.734;8.490;2023-02-10T04:30:58;102657.25;;;-4.53;87.53
45467;BME280;31212;49.734;8.490;2023-02-10T04:33:25;102660.41;;;-4.47;87.60
45467;BME280;31212;49.734;8.490;2023-02-10T04:35:52;102669.97;;;-4.45;87.64
45467;BME280;31212;49.734;8.490;2023-02-10T04:38:19;102674.44;;;-4.33;87.20
45467;BME280;31212;49.734;8.490;2023-02-10T04:40:46;102667.63;;;-4.26;87.40
45467;BME280;31212;49.734;8.490;2023-02-10T04:43:13;102663.16;;;-4.19;87.20
45467;BME280;31212;49.734;8.490;2023-02-10T04:45:41;102653.00;;;-4.11;86.80
45467;BME280;31212;49.734;8.490;2023-02-10T04:48:08;102642.44;;;-3.98;86.47
45467;BME280;31212;49.734;8.490;2023-02-10T04:50:36;102634.97;;;-4.05;86.44
45467;BME280;31212;49.734;8.490;2023-02-10T04:53:03;102634.22;;;-4.04;86.14
45467;BME280;31212;49.734;8.490;2023-02-10T04:55:29;102639.75;;;-4.08;86.39
45467;BME280;31212;49.734;8.490;2023-02-10T04:57:56;102647.34;;;-4.08;86.03
45467;BME280;31212;49.734;8.490;2023-02-10T05:00:22;102655.69;;;-4.09;86.01
45467;BME280;31212;49.734;8.490;2023-02-10T05:02:50;102670.94;;;-4.00;86.76
45467;BME280;31212;49.734;8.490;2023-02-10T05:05:17;102676.16;;;-3.90;86.90
45467;BME280;31212;49.734;8.490;2023-02-10T05:07:43;102678.28;;;-3.86;86.49
45467;BME280;31212;49.734;8.490;2023-02-10T05:10:10;102682.16;;;-3.72;86.99
45467;BME280;31212;49.734;8.490;2023-02-10T05:12:37;102672.00;;;-3.63;86.57
45467;BME280;31212;49.734;8.490;2023-02-10T05:15:04;102665.88;;;-3.57;86.42
45467;BME280;31212;49.734;8.490;2023-02-10T05:17:33;102671.09;;;-3.46;86.61
45467;BME280;31212;49.734;8.490;2023-02-10T05:20:00;102666.44;;;-3.42;85.68
45467;BME280;31212;49.734;8.490;2023-02-10T05:22:27;102655.22;;;-3.35;86.02
45467;BME280;31212;49.734;8.490;2023-02-10T05:24:54;102663.13;;;-3.14;85.38
45467;BME280;31212;49.734;8.490;2023-02-10T05:27:22;102657.13;;;-3.15;85.70
45467;BME280;31212;49.734;8.490;2023-02-10T05:29:48;102660.53;;;-3.06;85.23
45467;BME280;31212;49.734;8.490;2023-02-10T05:32:15;102650.84;;;-3.01;85.32
45467;BME280;31212;49.734;8.490;2023-02-10T05:34:42;102651.84;;;-2.90;85.31
45467;BME280;31212;49.734;8.490;2023-02-10T05:37:10;102638.81;;;-2.93;84.90
45467;BME280;31212;49.734;8.490;2023-02-10T05:39:36;102641.38;;;-2.93;85.34
45467;BME280;31212;49.734;8.490;2023-02-10T05:42:03;102643.31;;;-2.91;85.33
45467;BME280;31212;49.734;8.490;2023-02-10T05:44:29;102637.94;;;-2.94;84.67
45467;BME280;31212;49.734;8.490;2023-02-10T05:46:56;102643.63;;;-2.96;84.99
45467;BME280;31212;49.734;8.490;2023-02-10T05:49:23;102659.47;;;-2.90;85.14
45467;BME280;31212;49.734;8.490;2023-02-10T05:51:49;102669.91;;;-2.87;85.32
45467;BME280;31212;49.734;8.490;2023-02-10T05:54:17;102674.94;;;-2.78;85.46
45467;BME280;31212;49.734;8.490;2023-02-10T05:56:44;102678.69;;;-2.75;85.51
45467;BME280;31212;49.734;8.490;2023-02-10T05:59:11;102693.34;;;-2.72;85.28
45467;BME280;31212;49.734;8.490;2023-02-10T06:01:40;102687.03;;;-2.67;85.15
45467;BME280;31212;49.734;8.490;2023-02-10T06:04:06;102683.44;;;-2.60;85.62
45467;BME280;31212;49.734;8.490;2023-02-10T06:06:32;102677.25;;;-2.54;85.45
45467;BME280;31212;49.734;8.490;2023-02-10T06:08:59;102675.00;;;-2.50;84.57
45467;BME280;31212;49.734;8.490;2023-02-10T06:11:27;102666.16;;;-2.54;84.42
45467;BME280;31212;49.734;8.490;2023-02-10T06:13:53;102668.69;;;-2.45;84.71
45467;BME280;31212;49.734;8.490;2023-02-10T06:16:20;102669.28;;;-2.48;84.74
45467;BME280;31212;49.734;8.490;2023-02-10T06:18:46;102669.09;;;-2.41;84.23
45467;BME280;31212;49.734;8.490;2023-02-10T06:21:13;102650.22;;;-2.34;84.68
45467;BME280;31212;49.734;8.490;2023-02-10T06:23:40;102653.81;;;-2.32;84.04
45467;BME280;31212;49.734;8.490;2023-02-10T06:26:07;102644.16;;;-2.26;84.21
45467;BME280;31212;49.734;8.490;2023-02-10T06:28:36;102643.06;;;-2.19;83.98
45467;BME280;31212;49.734;8.490;2023-02-10T06:31:03;102634.56;;;-2.20;83.91
45467;BME280;31212;49.734;8.490;2023-02-10T06:33:29;102635.44;;;-2.19;83.68
45467;BME280;31212;49.734;8.490;2023-02-10T06:35:56;102635.03;;;-2.24;83.83
45467;BME280;31212;49.734;8.490;2023-02-10T06:38:22;102624.28;;;-2.30;83.92
45467;BME280;31212;49.734;8.490;2023-02-10T06:40:49;102628.84;;;-2.17;83.26
45467;BME280;31212;49.734;8.490;2023-02-10T06:43:15;102625.69;;;-2.14;83.25
45467;BME280;31212;49.734;8.490;2023-02-10T06:45:43;102619.69;;;-2.15;83.26
45467;BME280;31212;49.734;8.490;2023-02-10T06:48:09;102627.47;;;-2.13;83.24
45467;BME280;31212;49.734;8.490;2023-02-10T06:50:36;102610.28;;;-2.16;83.06
45467;BME280;31212;49.734;8.490;2023-02-10T06:53:03;102618.94;;;-2.14;83.51
45467;BME280;31212;49.734;8.490;2023-02-10T06:55:29;102607.44;;;-2.19;83.17
45467;BME280;31212;49.734;8.490;2023-02-10T06:57:58;102613.44;;;-2.18;82.89
45467;BME280;31212;49.734;8.490;2023-02-10T07:00:28;102627.19;;;-2.16;83.05
45467;BME280;31212;49.734;8.490;2023-02-10T07:02:56;102635.31;;;-2.21;83.70
45467;BME280;31212;49.734;8.490;2023-02-10T07:05:23;102634.06;;;-2.15;83.57
45467;BME280;31212;49.734;8.490;2023-02-10T07:07:49;102636.84;;;-2.23;83.13
45467;BME280;31212;49.734;8.490;2023-02-10T07:10:18;102640.41;;;-2.21;83.41
45467;BME280;31212;49.734;8.490;2023-02-10T07:12:45;102656.09;;;-2.16;83.53
45467;BME280;31212;49.734;8.490;2023-02-10T07:15:12;102646.31;;;-2.11;83.60
45467;BME280;31212;49.734;8.490;2023-02-10T07:17:38;102638.69;;;-2.11;83.33
45467;BME280;31212;49.734;8.490;2023-02-10T07:20:07;102642.41;;;-2.08;83.30
45467;BME280;31212;49.734;8.490;2023-02-10T07:22:34;102648.00;;;-2.12;83.49
45467;BME280;31212;49.734;8.490;2023-02-10T07:25:01;102661.13;;;-2.07;83.57
45467;BME280;31212;49.734;8.490;2023-02-10T07:27:27;102656.91;;;-2.07;83.56
45467;BME280;31212;49.734;8.490;2023-02-10T07:29:54;102660.22;;;-2.08;83.76
45467;BME280;31212;49.734;8.490;2023-02-10T07:32:20;102667.38;;;-2.04;83.78
45467;BME280;31212;49.734;8.490;2023-02-10T07:34:47;102662.91;;;-2.06;83.44
45467;BME280;31212;49.734;8.490;2023-02-10T07:37:16;102659.44;;;-2.07;83.40
45467;BME280;31212;49.734;8.490;2023-02-10T07:39:42;102647.06;;;-2.12;83.08
45467;BME280;31212;49.734;8.490;2023-02-10T07:42:09;102648.88;;;-2.11;83.19
45467;BME280;31212;49.734;8.490;2023-02-10T07:44:58;102645.13;;;-2.15;83.24
45467;BME280;31212;49.734;8.490;2023-02-10T07:47:24;102650.84;;;-2.17;83.82
45467;BME280;31212;49.734;8.490;2023-02-10T07:49:51;102661.50;;;-2.22;83.49
45467;BME280;31212;49.734;8.490;2023-02-10T07:52:20;102665.09;;;-2.20;84.20
45467;BME280;31212;49.734;8.490;2023-02-10T07:54:48;102668.53;;;-2.19;83.59
45467;BME280;31212;49.734;8.490;2023-02-10T07:57:16;102676.13;;;-2.10;83.72
45467;BME280;31212;49.734;8.490;2023-02-10T07:59:42;102659.03;;;-2.11;83.26
45467;BME280;31212;49.734;8.490;2023-02-10T08:02:09;102665.31;;;-2.08;83.46
45467;BME280;31212;49.734;8.490;2023-02-10T08:04:36;102667.56;;;-2.11;83.75
45467;BME280;31212;49.734;8.490;2023-02-10T08:07:03;102680.13;;;-2.04;83.46
45467;BME280;31212;49.734;8.490;2023-02-10T08:09:30;102691.75;;;-1.78;83.65
45467;BME280;31212;49.734;8.490;2023-02-10T08:11:57;102698.00;;;-1.36;83.07
45467;BME280;31212;49.734;8.490;2023-02-10T08:14:23;102675.19;;;-1.05;82.65
45467;BME280;31212;49.734;8.490;2023-02-10T08:16:50;102639.84;;;-0.61;81.05
45467;BME280;31212;49.734;8.490;2023-02-10T08:19:16;102581.94;;;-0.31;79.84
45467;BME280;31212;49.734;8.490;2023-02-10T08:21:43;102542.16;;;0.14;78.57
45467;BME280;31212;49.734;8.490;2023-02-10T08:24:09;102487.22;;;0.63;76.89
45467;BME280;31212;49.734;8.490;2023-02-10T08:26:37;102437.56;;;1.06;75.67
45467;BME280;31212;49.734;8.490;2023-02-10T08:29:04;102341.03;;;1.88;72.92
45467;BME280;31212;49.734;8.490;2023-02-10T08:31:30;102227.31;;;1.97;71.39
45467;BME280;31212;49.734;8.490;2023-02-10T08:33:57;102148.41;;;1.41;70.12
45467;BME280;31212;49.734;8.490;2023-02-10T08:36:23;102146.22;;;0.97;70.28
45467;BME280;31212;49.734;8.490;2023-02-10T08:38:50;102194.03;;;0.86;71.38
45467;BME280;31212;49.734;8.490;2023-02-10T08:41:17;102225.53;;;0.85;71.70
45467;BME280;31212;49.734;8.490;2023-02-10T08:43:45;102249.41;;;0.97;71.61
45467;BME280;31212;49.734;8.490;2023-02-10T08:46:12;102237.63;;;0.64;72.04
45467;BME280;31212;49.734;8.490;2023-02-10T08:48:38;102267.97;;;0.71;72.24
45467;BME280;31212;49.734;8.490;2023-02-10T08:51:06;102272.84;;;0.68;72.18
45467;BME280;31212;49.734;8.490;2023-02-10T08:53:33;102248.84;;;0.54;72.28
45467;BME280;31212;49.734;8.490;2023-02-10T08:56:04;102295.78;;;0.78;72.54
45467;BME280;31212;49.734;8.490;2023-02-10T08:58:31;102302.78;;;1.05;72.33
45467;BME280;31212;49.734;8.490;2023-02-10T09:00:59;102296.09;;;1.18;71.74
45467;BME280;31212;49.734;8.490;2023-02-10T09:03:26;102249.06;;;1.05;71.34
45467;BME280;31212;49.734;8.490;2023-02-10T09:05:54;102264.28;;;1.15;71.52
45467;BME280;31212;49.734;8.490;2023-02-10T09:08:20;102242.81;;;1.13;70.90
45467;BME280;31212;49.734;8.490;2023-02-10T09:10:47;102254.72;;;1.12;71.02
45467;BME280;31212;49.734;8.490;2023-02-10T09:13:14;102272.84;;;1.27;71.41
45467;BME280;31212;49.734;8.490;2023-02-10T09:15:41;102264.25;;;1.39;70.69
45467;BME280;31212;49.734;8.490;2023-02-10T09:18:10;102263.09;;;1.47;70.86
45467;BME280;31212;49.734;8.490;2023-02-10T09:20:37;102278.34;;;1.57;70.91
45467;BME280;31212;49.734;8.490;2023-02-10T09:23:03;102252.19;;;1.49;70.32
45467;BME280;31212;49.734;8.490;2023-02-10T09:25:30;102251.69;;;1.30;70.74
45467;BME280;31212;49.734;8.490;2023-02-10T09:27:56;102242.69;;;1.35;70.52
45467;BME280;31212;49.734;8.490;2023-02-10T09:30:23;102241.56;;;1.31;70.28
45467;BME280;31212;49.734;8.490;2023-02-10T09:32:50;102247.31;;;1.53;70.35
45467;BME280;31212;49.734;8.490;2023-02-10T09:35:18;102253.91;;;1.74;70.17
45467;BME280;31212;49.734;8.490;2023-02-10T09:37:44;102240.38;;;1.63;70.07
45467;BME280;31212;49.734;8.490;2023-02-10T09:40:16;102220.56;;;1.86;69.52
45467;BME280;31212;49.734;8.490;2023-02-10T09:42:53;102189.38;;;2.05;68.92
45467;BME280;31212;49.734;8.490;2023-02-10T09:45:24;102139.03;;;1.92;68.49
45467;BME280;31212;49.734;8.490;2023-02-10T09:47:52;102149.00;;;2.14;68.36
45467;BME280;31212;49.734;8.490;2023-02-10T09:50:44;102117.66;;;2.32;67.32
45467;BME280;31212;49.734;8.490;2023-02-10T09:53:17;102105.53;;;2.29;67.74
45467;BME280;31212;49.734;8.490;2023-02-10T09:55:48;102094.41;;;2.42;67.16
45467;BME280;31212;49.734;8.490;2023-02-10T09:58:20;102091.75;;;2.54;67.30
45467;BME280;31212;49.734;8.490;2023-02-10T10:00:52;102084.47;;;2.75;66.51
45467;BME280;31212;49.734;8.490;2023-02-10T10:03:26;102065.19;;;2.95;66.42
45467;BME280;31212;49.734;8.490;2023-02-10T10:06:02;102031.03;;;2.96;65.60
45467;BME280;31212;49.734;8.490;2023-02-10T10:08:38;102060.41;;;3.30;65.43
45467;BME280;31212;49.734;8.490;2023-02-10T10:11:23;102037.41;;;3.46;65.32
45467;BME280;31212;49.734;8.490;2023-02-10T10:13:50;102016.59;;;3.72;64.76
45467;BME280;31212;49.734;8.490;2023-02-10T10:16:24;101970.91;;;4.12;63.52
45467;BME280;31212;49.734;8.490;2023-02-10T10:19:03;101900.78;;;4.48;62.33
45467;BME280;31212;49.734;8.490;2023-02-10T10:21:43;101839.06;;;4.64;61.20
45467;BME280;31212;49.734;8.490;2023-02-10T10:24:25;101806.81;;;4.89;60.26
45467;BME280;31212;49.734;8.490;2023-02-10T10:27:03;101763.69;;;5.39;59.10
45467;BME280;31212;49.734;8.490;2023-02-10T10:29:40;101729.38;;;5.78;58.33
45467;BME280;31212;49.734;8.490;2023-02-10T10:32:14;101669.47;;;6.24;56.82
45467;BME280;31212;49.734;8.490;2023-02-10T10:34:51;101585.22;;;6.46;55.60
45467;BME280;31212;49.734;8.490;2023-02-10T10:37:21;101539.25;;;7.05;53.95
45467;BME280;31212;49.734;8.490;2023-02-10T10:39:50;101468.00;;;7.36;53.17
45467;BME280;31212;49.734;8.490;2023-02-10T10:42:22;101401.22;;;7.48;51.40
45467;BME280;31212;49.734;8.490;2023-02-10T10:44:50;101387.25;;;7.70;51.03
45467;BME280;31212;49.734;8.490;2023-02-10T10:47:31;101389.69;;;8.23;50.31
45467;BME280;31212;49.734;8.490;2023-02-10T10:50:00;101333.72;;;8.92;48.66
45467;BME280;31212;49.734;8.490;2023-02-10T10:52:32;101211.16;;;9.76;46.07
45467;BME280;31212;49.734;8.490;2023-02-10T10:55:03;101185.09;;;10.17;45.59
45467;BME280;31212;49.734;8.490;2023-02-10T10:57:32;101129.88;;;9.74;45.45
45467;BME280;31212;49.734;8.490;2023-02-10T11:00:06;101223.38;;;9.39;46.44
45467;BME280;31212;49.734;8.490;2023-02-10T11:02:51;101163.22;;;9.11;45.95
45467;BME280;31212;49.734;8.490;2023-02-10T11:05:17;101100.97;;;9.52;44.68
45467;BME280;31212;49.734;8.490;2023-02-10T11:07:49;101133.50;;;10.34;43.72
45467;BME280;31212;49.734;8.490;2023-02-10T11:10:23;101119.41;;;10.76;43.49
45467;BME280;31212;49.734;8.490;2023-02-10T11:12:51;101049.75;;;11.15;42.04
45467;BME280;31212;49.734;8.490;2023-02-10T11:15:30;100979.31;;;10.23;42.27
45467;BME280;31212;49.734;8.490;2023-02-10T11:17:58;101033.88;;;9.69;43.38
45467;BME280;31212;49.734;8.490;2023-02-10T11:20:27;101111.31;;;9.52;43.97
45467;BME280;31212;49.734;8.490;2023-02-10T11:22:59;101195.63;;;9.33;45.02
45467;BME280;31212;49.734;8.490;2023-02-10T11:25:29;101244.16;;;9.02;46.25
45467;BME280;31212;49.734;8.490;2023-02-10T11:27:57;101253.47;;;8.57;46.58
45467;BME280;31212;49.734;8.490;2023-02-10T11:30:26;101385.16;;;8.79;47.53
45467;BME280;31212;49.734;8.490;2023-02-10T11:32:53;101370.59;;;8.84;47.16
45467;BME280;31212;49.734;8.490;2023-02-10T11:35:20;101380.72;;;8.42;47.92
45467;BME280;31212;49.734;8.490;2023-02-10T11:37:53;101344.88;;;8.56;47.58
45467;BME280;31212;49.734;8.490;2023-02-10T11:40:25;101313.19;;;8.33;46.89
45467;BME280;31212;49.734;8.490;2023-02-10T11:42:55;101382.75;;;8.22;47.62
45467;BME280;31212;49.734;8.490;2023-02-10T11:45:24;101358.59;;;8.22;47.46
45467;BME280;31212;49.734;8.490;2023-02-10T11:48:02;101380.72;;;7.82;48.49
45467;BME280;31212;49.734;8.490;2023-02-10T11:50:31;101417.75;;;7.82;49.07
45467;BME280;31212;49.734;8.490;2023-02-10T11:52:58;101434.00;;;7.78;49.12
45467;BME280;31212;49.734;8.490;2023-02-10T11:55:33;101465.13;;;7.81;49.58
45467;BME280;31212;49.734;8.490;2023-02-10T11:58:20;101481.38;;;7.77;49.12
45467;BME280;31212;49.734;8.490;2023-02-10T12:01:09;101529.16;;;8.17;49.32
45467;BME280;31212;49.734;8.490;2023-02-10T12:03:49;101486.03;;;8.16;48.75
45467;BME280;31212;49.734;8.490;2023-02-10T12:06:22;101475.56;;;8.42;48.71
45467;BME280;31212;49.734;8.490;2023-02-10T12:08:56;101435.34;;;8.23;48.10
45467;BME280;31212;49.734;8.490;2023-02-10T12:11:33;101363.31;;;8.06;47.86
45467;BME280;31212;49.734;8.490;2023-02-10T12:14:09;101444.88;;;8.24;48.79
45467;BME280;31212;49.734;8.490;2023-02-10T12:16:48;101427.94;;;8.35;48.00
45467;BME280;31212;49.734;8.490;2023-02-10T12:19:20;101382.97;;;8.30;47.95
45467;BME280;31212;49.734;8.490;2023-02-10T12:22:02;101365.13;;;8.39;47.31
45467;BME280;31212;49.734;8.490;2023-02-10T12:24:51;101327.59;;;8.55;46.86
45467;BME280;31212;49.734;8.490;2023-02-10T12:27:30;101300.13;;;8.61;46.83
45467;BME280;31212;49.734;8.490;2023-02-10T12:30:04;101300.72;;;8.18;46.78
45467;BME280;31212;49.734;8.490;2023-02-10T12:32:45;101286.34;;;8.30;46.42
45467;BME280;31212;49.734;8.490;2023-02-10T12:35:23;101295.28;;;8.41;46.96
45467;BME280;31212;49.734;8.490;2023-02-10T12:38:03;101324.44;;;8.67;46.68
45467;BME280;31212;49.734;8.490;2023-02-10T12:40:44;101297.19;;;8.47;46.14
45467;BME280;31212;49.734;8.490;2023-02-10T12:43:27;101316.63;;;8.34;47.20
45467;BME280;31212;49.734;8.490;2023-02-10T12:46:05;101366.38;;;8.54;46.97
45467;BME280;31212;49.734;8.490;2023-02-10T12:48:41;101366.44;;;8.25;47.94
45467;BME280;31212;49.734;8.490;2023-02-10T12:51:22;101382.19;;;8.65;47.17
45467;BME280;31212;49.734;8.490;2023-02-10T12:53:55;101378.19;;;8.76;47.13
45467;BME280;31212;49.734;8.490;2023-02-10T12:56:27;101340.06;;;8.38;47.29
45467;BME280;31212;49.734;8.490;2023-02-10T12:59:02;101308.91;;;8.02;47.56
45467;BME280;31212;49.734;8.490;2023-02-10T13:01:34;101368.78;;;8.17;47.94
45467;BME280;31212;49.734;8.490;2023-02-10T13:04:07;101400.69;;;8.18;48.57
45467;BME280;31212;49.734;8.490;2023-02-10T13:06:40;101369.88;;;7.94;48.16